createdAt,value
2019-01-29T00:00:56.814Z,38.38
2019-01-29T00:03:30.424Z,26.23
2019-01-29T00:06:03.984Z,31.42
2019-01-29T00:08:37.679Z,34.60
2019-01-29T00:11:11.097Z,38.63
2019-01-29T00:13:44.736Z,25.15
2019-01-29T00:16:18.396Z,21.60
2019-01-29T00:18:51.845Z,22.32
2019-01-29T00:21:25.157Z,24.25
2019-01-29T00:23:58.750Z,23.15
2019-01-29T00:26:32.621Z,27.95
2019-01-29T00:29:05.835Z,31.42
2019-01-29T00:34:12.347Z,45.12
2019-01-29T00:36:46.217Z,54.27
2019-01-29T00:39:19.959Z,58.70
2019-01-29T00:41:53.299Z,46.45
2019-01-29T00:44:27.682Z,49.42
2019-01-29T00:47:14.132Z,37.15
2019-01-29T00:49:55.782Z,36.83
2019-01-29T00:52:29.146Z,36.90
2019-01-29T00:55:14.539Z,60.15
2019-01-29T00:57:48.449Z,45.20
2019-01-29T01:00:23.064Z,50.58
2019-01-29T01:02:56.182Z,63.00
2019-01-29T01:08:01.546Z,67.78
2019-01-29T01:10:34.754Z,67.60
2019-01-29T01:13:08.380Z,57.50
2019-01-29T01:15:41.519Z,65.17
2019-01-29T01:20:47.340Z,63.52
2019-01-29T01:23:20.701Z,61.37
2019-01-29T01:25:55.180Z,63.58
2019-01-29T01:28:28.591Z,62.48
2019-01-29T01:31:01.989Z,78.47
2019-01-29T01:33:35.069Z,63.17
2019-01-29T01:36:08.383Z,70.32
2019-01-29T01:38:42.458Z,68.92
2019-01-29T01:41:15.880Z,97.67
2019-01-29T01:43:49.459Z,140.30
2019-01-29T01:46:22.805Z,133.80
2019-01-29T01:49:08.611Z,101.62
2019-01-29T01:51:54.578Z,121.77
2019-01-29T01:54:35.750Z,82.20
2019-01-29T01:57:09.434Z,67.97
2019-01-29T01:59:51.844Z,74.20
2019-01-29T02:02:25.197Z,69.47
2019-01-29T02:04:58.277Z,53.65
2019-01-29T02:07:31.709Z,52.58
2019-01-29T02:10:06.317Z,56.92
2019-01-29T02:12:39.777Z,61.88
2019-01-29T02:15:13.803Z,59.53
2019-01-29T02:17:46.825Z,58.60
2019-01-29T02:20:20.485Z,50.15
2019-01-29T02:22:53.935Z,58.83
2019-01-29T02:25:27.426Z,63.02
2019-01-29T02:28:00.746Z,53.87
2019-01-29T02:30:34.126Z,50.58
2019-01-29T02:33:07.027Z,47.75
2019-01-29T02:35:39.970Z,49.30
2019-01-29T02:38:13.526Z,47.70
2019-01-29T02:40:47.208Z,47.83
2019-01-29T02:43:20.406Z,46.30
2019-01-29T02:48:38.165Z,36.53
2019-01-29T02:51:21.283Z,36.53
2019-01-29T02:53:54.779Z,34.85
2019-01-29T02:56:38.996Z,40.25
2019-01-29T02:59:20.235Z,38.78
2019-01-29T03:01:55.787Z,49.08
2019-01-29T03:04:29.583Z,35.20
2019-01-29T03:07:03.298Z,29.48
2019-01-29T03:09:36.417Z,31.20
2019-01-29T03:14:41.701Z,35.15
2019-01-29T03:17:15.772Z,54.95
2019-01-29T03:19:48.879Z,47.70
2019-01-29T03:24:56.825Z,71.60
2019-01-29T03:30:02.821Z,52.13
2019-01-29T03:32:41.356Z,76.02
2019-01-29T03:35:15.033Z,77.35
2019-01-29T03:37:48.713Z,58.48
2019-01-29T03:40:24.702Z,63.13
2019-01-29T03:42:58.619Z,50.15
2019-01-29T03:45:32.419Z,43.55
2019-01-29T03:48:08.687Z,42.08
2019-01-29T03:50:42.151Z,44.85
2019-01-29T03:53:15.265Z,43.80
2019-01-29T03:58:20.373Z,45.52
2019-01-29T04:00:54.172Z,45.17
2019-01-29T04:03:29.833Z,45.45
2019-01-29T04:06:02.926Z,40.98
2019-01-29T04:08:37.441Z,40.28
2019-01-29T04:11:13.100Z,41.42
2019-01-29T04:13:46.694Z,41.68
2019-01-29T04:16:21.172Z,42.15
2019-01-29T04:18:54.673Z,41.25
2019-01-29T04:21:28.548Z,39.50
2019-01-29T04:24:01.656Z,39.53
2019-01-29T04:29:07.066Z,42.27
2019-01-29T04:31:40.527Z,46.90
2019-01-29T04:34:13.950Z,50.75
2019-01-29T04:36:47.592Z,59.73
2019-01-29T04:39:24.158Z,75.78
2019-01-29T04:41:57.052Z,68.85
2019-01-29T04:44:30.653Z,66.65
2019-01-29T04:47:03.514Z,65.55
2019-01-29T04:49:46.927Z,56.15
2019-01-29T04:55:03.640Z,49.35
2019-01-29T04:57:37.306Z,46.08
2019-01-29T05:00:16.656Z,48.35
2019-01-29T05:02:50.174Z,47.60
2019-01-29T05:05:24.057Z,58.20
2019-01-29T05:07:57.460Z,53.10
2019-01-29T05:10:30.690Z,49.27
2019-01-29T05:15:37.062Z,60.08
2019-01-29T05:18:09.873Z,64.72
2019-01-29T05:20:43.428Z,124.50
2019-01-29T05:23:16.776Z,92.78
2019-01-29T05:25:50.323Z,78.35
2019-01-29T05:28:24.877Z,96.28
2019-01-29T05:30:58.574Z,94.20
2019-01-29T05:33:31.762Z,96.37
2019-01-29T05:38:37.708Z,76.60
2019-01-29T05:41:11.734Z,73.45
2019-01-29T05:43:47.913Z,71.02
2019-01-29T05:46:21.527Z,77.87
2019-01-29T05:49:05.750Z,75.20
2019-01-29T05:51:41.770Z,80.10
2019-01-29T05:54:16.739Z,87.22
2019-01-29T05:56:53.400Z,92.15
2019-01-29T05:59:28.702Z,91.20
2019-01-29T06:02:02.652Z,104.75
2019-01-29T06:04:38.824Z,107.47
2019-01-29T06:07:12.390Z,106.22
2019-01-29T06:09:46.456Z,105.00
2019-01-29T06:12:20.564Z,107.58
2019-01-29T06:14:55.197Z,116.35
2019-01-29T06:17:46.394Z,122.75
2019-01-29T06:20:22.256Z,123.40
2019-01-29T06:22:57.245Z,123.90
2019-01-29T06:25:31.106Z,129.95
2019-01-29T06:28:04.792Z,156.50
2019-01-29T06:30:38.510Z,141.57
2019-01-29T06:33:15.677Z,101.95
2019-01-29T06:35:49.144Z,55.67
2019-01-29T06:38:23.142Z,46.37
2019-01-29T06:40:56.958Z,51.23
2019-01-29T06:43:30.778Z,74.30
2019-01-29T06:46:04.576Z,82.53
2019-01-29T06:48:53.811Z,79.58
2019-01-29T06:51:39.095Z,80.55
2019-01-29T06:54:12.857Z,83.60
2019-01-29T06:56:46.631Z,89.50
2019-01-29T06:59:20.882Z,94.95
2019-01-29T07:01:56.502Z,91.60
2019-01-29T07:04:31.099Z,97.53
2019-01-29T07:07:05.583Z,91.00
2019-01-29T07:09:39.236Z,122.70
2019-01-29T07:12:13.075Z,118.72
2019-01-29T07:14:46.943Z,119.90
2019-01-29T07:17:36.819Z,115.15
2019-01-29T07:20:13.025Z,109.63
2019-01-29T07:22:46.128Z,105.35
2019-01-29T07:25:20.303Z,104.75
2019-01-29T07:27:55.530Z,113.50
2019-01-29T07:30:29.499Z,103.70
2019-01-29T07:33:04.402Z,103.35
2019-01-29T07:35:38.257Z,92.05
2019-01-29T07:38:12.039Z,85.12
2019-01-29T07:40:45.583Z,67.55
2019-01-29T07:43:20.443Z,55.95
2019-01-29T07:45:54.479Z,67.03
2019-01-29T07:48:39.003Z,76.50
2019-01-29T07:51:12.652Z,77.05
2019-01-29T07:53:59.051Z,91.00
2019-01-29T07:56:45.186Z,134.97
2019-01-29T07:59:32.668Z,166.60
2019-01-29T08:02:01.350Z,228.60
2019-01-29T08:04:34.922Z,198.23
2019-01-29T08:07:08.727Z,201.42
2019-01-29T08:09:42.153Z,184.63
2019-01-29T08:12:17.023Z,122.45
2019-01-29T08:14:50.834Z,104.23
2019-01-29T08:17:24.523Z,93.22
2019-01-29T08:19:58.477Z,89.52
2019-01-29T08:22:32.130Z,89.77
2019-01-29T08:25:10.991Z,48.55
2019-01-29T08:27:45.155Z,71.82
2019-01-29T08:30:19.100Z,62.17
2019-01-29T08:32:53.043Z,82.60
2019-01-29T08:35:27.062Z,74.35
2019-01-29T08:38:00.953Z,55.55
2019-01-29T08:40:35.791Z,57.60
2019-01-29T08:43:09.245Z,62.98
2019-01-29T08:45:42.881Z,51.50
2019-01-29T08:48:16.853Z,55.85
2019-01-29T08:51:03.840Z,57.13
2019-01-29T08:53:46.739Z,62.88
2019-01-29T08:56:20.885Z,69.10
2019-01-29T08:58:54.845Z,75.60
2019-01-29T09:01:27.885Z,83.75
2019-01-29T09:04:02.137Z,97.25
2019-01-29T09:06:35.803Z,101.47
2019-01-29T09:09:11.165Z,116.03
2019-01-29T09:11:44.972Z,142.55
2019-01-29T09:14:19.476Z,146.30
2019-01-29T09:16:53.138Z,138.57
2019-01-29T09:19:27.908Z,147.40
2019-01-29T09:22:01.589Z,139.40
2019-01-29T09:24:36.014Z,145.25
2019-01-29T09:27:09.702Z,131.67
2019-01-29T09:29:43.310Z,133.70
2019-01-29T09:32:17.219Z,143.15
2019-01-29T09:34:51.175Z,152.60
2019-01-29T09:37:24.953Z,172.65
2019-01-29T09:39:58.543Z,146.85
2019-01-29T09:42:32.170Z,162.15
2019-01-29T09:45:06.803Z,159.18
2019-01-29T09:47:41.558Z,143.00
2019-01-29T09:50:25.063Z,153.00
2019-01-29T09:52:59.532Z,142.05
2019-01-29T09:55:34.060Z,119.65
2019-01-29T09:58:07.761Z,110.20
2019-01-29T10:00:42.140Z,108.17
2019-01-29T10:03:15.976Z,109.78
2019-01-29T10:05:50.263Z,137.97
2019-01-29T10:08:24.058Z,131.95
2019-01-29T10:10:57.300Z,145.50
2019-01-29T10:13:31.326Z,113.68
2019-01-29T10:16:05.584Z,128.02
2019-01-29T10:18:39.628Z,123.22
2019-01-29T10:21:13.441Z,111.68
2019-01-29T10:23:47.274Z,105.12
2019-01-29T10:26:22.066Z,109.07
2019-01-29T10:28:55.928Z,114.45
2019-01-29T10:31:29.263Z,122.58
2019-01-29T10:36:36.437Z,102.05
2019-01-29T10:39:11.832Z,94.10
2019-01-29T10:41:45.252Z,89.52
2019-01-29T10:44:21.070Z,97.97
2019-01-29T10:46:54.944Z,73.05
2019-01-29T10:49:41.211Z,75.78
2019-01-29T10:52:25.835Z,86.78
2019-01-29T10:55:08.582Z,65.75
2019-01-29T10:57:42.282Z,74.30
2019-01-29T11:00:20.626Z,79.58
2019-01-29T11:02:56.069Z,77.75
2019-01-29T11:05:29.791Z,77.30
2019-01-29T11:08:03.708Z,81.25
2019-01-29T11:10:37.654Z,83.70
2019-01-29T11:13:11.326Z,85.35
2019-01-29T11:15:47.216Z,84.70
2019-01-29T11:18:21.218Z,80.00
2019-01-29T11:20:56.317Z,55.20
2019-01-29T11:23:30.109Z,43.73
2019-01-29T11:26:03.793Z,65.52
2019-01-29T11:28:37.809Z,63.83
2019-01-29T11:31:13.200Z,69.77
2019-01-29T11:33:46.919Z,77.40
2019-01-29T11:36:20.649Z,69.82
2019-01-29T11:38:53.759Z,78.80
2019-01-29T11:41:27.681Z,88.97
2019-01-29T11:44:01.261Z,70.40
2019-01-29T11:46:35.403Z,67.15
2019-01-29T11:51:53.984Z,74.95
2019-01-29T11:54:37.314Z,67.20
2019-01-29T11:59:44.170Z,113.40
2019-01-29T12:02:19.194Z,117.50
2019-01-29T12:04:55.206Z,118.90
2019-01-29T12:07:30.193Z,113.62
2019-01-29T12:10:04.291Z,109.22
2019-01-29T12:12:38.369Z,93.52
2019-01-29T12:15:13.602Z,108.70
2019-01-29T12:17:46.832Z,86.37
2019-01-29T12:20:22.020Z,80.77
2019-01-29T12:44:07.260Z,97.08
2019-01-29T12:46:45.846Z,82.82
2019-01-29T12:49:20.184Z,68.37
2019-01-29T12:52:08.337Z,56.70
2019-01-29T12:54:42.212Z,46.33
2019-01-29T12:57:16.040Z,42.00
2019-01-29T12:59:51.857Z,50.70
2019-01-29T13:02:25.459Z,62.53
2019-01-29T13:04:59.332Z,115.75
2019-01-29T13:07:33.292Z,122.65
2019-01-29T13:10:09.260Z,48.28
2019-01-29T13:12:43.634Z,58.02
2019-01-29T13:15:20.171Z,66.57
2019-01-29T13:17:54.008Z,60.78
2019-01-29T13:20:27.583Z,95.05
2019-01-29T13:23:01.094Z,65.90
2019-01-29T13:25:35.010Z,89.05
2019-01-29T13:28:08.983Z,49.33
2019-01-29T13:30:44.700Z,45.25
2019-01-29T13:33:20.709Z,41.13
2019-01-29T13:35:54.938Z,41.30
2019-01-29T13:38:28.579Z,46.15
2019-01-29T13:41:02.614Z,50.83
2019-01-29T13:43:36.219Z,60.20
2019-01-29T13:46:09.590Z,60.85
2019-01-29T13:48:43.562Z,56.98
2019-01-29T13:51:27.674Z,53.92
2019-01-29T13:54:10.323Z,51.10
2019-01-29T13:56:45.275Z,59.00
2019-01-29T13:59:18.954Z,104.95
2019-01-29T14:01:52.781Z,77.72
2019-01-29T14:04:26.448Z,65.28
2019-01-29T14:07:00.049Z,96.08
2019-01-29T14:09:36.274Z,96.60
2019-01-29T14:12:10.410Z,119.30
2019-01-29T14:14:43.839Z,140.05
2019-01-29T14:17:18.758Z,146.07
2019-01-29T14:19:52.421Z,145.75
2019-01-29T14:22:26.849Z,143.30
2019-01-29T14:25:00.413Z,123.20
2019-01-29T14:27:34.333Z,96.20
2019-01-29T14:30:10.322Z,90.17
2019-01-29T14:32:44.231Z,70.70
2019-01-29T14:35:22.181Z,70.37
2019-01-29T14:38:34.611Z,75.42
2019-01-29T14:41:08.552Z,69.22
2019-01-29T14:43:44.095Z,80.45
2019-01-29T14:46:20.294Z,74.30
2019-01-29T14:48:54.266Z,76.55
2019-01-29T14:51:40.299Z,79.03
2019-01-29T14:54:21.492Z,88.78
2019-01-29T14:56:57.243Z,91.17
2019-01-29T14:59:30.928Z,90.92
2019-01-29T15:02:05.403Z,86.22
2019-01-29T15:04:39.123Z,98.62
2019-01-29T15:07:13.919Z,99.30
2019-01-29T15:09:48.471Z,87.33
2019-01-29T15:12:22.995Z,90.12
2019-01-29T15:14:56.939Z,107.22
2019-01-29T15:17:47.111Z,107.72
2019-01-29T15:20:21.043Z,138.77
2019-01-29T15:22:55.967Z,123.38
2019-01-29T15:25:29.534Z,136.92
2019-01-29T15:28:03.286Z,132.03
2019-01-29T15:30:37.210Z,127.58
2019-01-29T15:33:11.056Z,124.95
2019-01-29T15:35:44.835Z,155.37
2019-01-29T15:38:18.885Z,144.95
2019-01-29T15:40:53.568Z,143.15
2019-01-29T15:43:27.102Z,157.65
2019-01-29T15:46:01.301Z,141.28
2019-01-29T15:48:34.918Z,140.65
2019-01-29T15:51:08.570Z,169.07
2019-01-29T15:53:52.262Z,156.18
2019-01-29T16:01:50.939Z,268.70
2019-01-29T16:04:26.690Z,231.00
2019-01-29T16:07:07.334Z,243.33
2019-01-29T16:09:41.284Z,201.90
2019-01-29T16:12:15.983Z,270.85
2019-01-29T16:14:51.203Z,199.00
2019-01-29T16:17:25.376Z,196.75
2019-01-29T16:19:59.813Z,219.70
2019-01-29T16:22:33.498Z,232.10
2019-01-29T16:25:08.784Z,210.90
2019-01-29T16:27:42.277Z,221.70
2019-01-29T16:30:33.986Z,230.27
2019-01-29T16:33:08.394Z,288.87
2019-01-29T16:35:44.551Z,270.35
2019-01-29T16:38:20.635Z,286.27
2019-01-29T16:41:00.551Z,318.95
2019-01-29T16:43:32.351Z,319.70
2019-01-29T16:46:06.175Z,333.38
2019-01-29T16:48:40.970Z,340.77
2019-01-29T16:51:14.937Z,275.40
2019-01-29T16:54:00.565Z,188.00
2019-01-29T16:56:45.933Z,147.07
2019-01-29T16:59:32.395Z,139.00
2019-01-29T17:02:19.250Z,160.40
2019-01-29T17:04:59.102Z,176.97
2019-01-29T17:07:33.843Z,154.78
2019-01-29T17:10:09.884Z,131.87
2019-01-29T17:12:44.605Z,135.65
2019-01-29T17:15:29.949Z,130.95
2019-01-29T17:18:05.840Z,133.43
2019-01-29T17:20:41.161Z,143.17
2019-01-29T17:23:16.075Z,143.57
2019-01-29T17:25:49.797Z,156.32
2019-01-29T17:28:23.559Z,147.35
2019-01-29T17:30:57.353Z,147.57
2019-01-29T17:33:31.522Z,156.32
2019-01-29T17:36:05.465Z,137.15
2019-01-29T17:38:44.719Z,154.63
2019-01-29T17:41:16.622Z,167.05
2019-01-29T17:43:50.082Z,173.07
2019-01-29T17:46:24.065Z,197.55
2019-01-29T17:48:57.447Z,172.37
2019-01-29T17:51:31.256Z,167.25
2019-01-29T17:54:17.575Z,197.35
2019-01-29T17:56:52.676Z,227.60
2019-01-29T17:59:27.078Z,204.43
2019-01-29T18:02:01.908Z,221.62
2019-01-29T18:04:35.803Z,216.17
2019-01-29T18:07:09.688Z,208.55
2019-01-29T18:09:43.580Z,221.70
2019-01-29T18:12:17.684Z,218.70
2019-01-29T18:14:51.769Z,207.90
2019-01-29T18:17:25.522Z,195.72
2019-01-29T18:19:57.292Z,205.72
2019-01-29T18:22:34.043Z,283.00
2019-01-29T18:25:10.951Z,293.02
2019-01-29T18:27:46.149Z,269.75
2019-01-29T18:30:21.764Z,277.52
2019-01-29T18:32:55.590Z,370.05
2019-01-29T18:35:29.394Z,407.20
2019-01-29T18:38:04.694Z,180.87
2019-01-29T18:40:51.726Z,148.50
2019-01-29T18:43:25.644Z,250.62
2019-01-29T18:46:00.428Z,182.32
2019-01-29T18:48:34.246Z,144.43
2019-01-29T18:51:08.714Z,132.85
2019-01-29T18:53:55.507Z,147.62
2019-01-29T18:56:38.443Z,197.37
2019-01-29T18:59:13.049Z,184.30
2019-01-29T19:01:59.032Z,169.13
2019-01-29T19:04:43.123Z,161.57
2019-01-29T19:07:28.911Z,145.50
2019-01-29T19:10:13.339Z,134.47
2019-01-29T19:12:49.703Z,142.57
2019-01-29T19:15:24.364Z,125.70
2019-01-29T19:17:58.847Z,141.05
2019-01-29T19:20:32.519Z,208.70
2019-01-29T19:23:06.448Z,237.78
2019-01-29T19:25:40.439Z,273.15
2019-01-29T19:28:21.598Z,255.18
2019-01-29T19:30:50.024Z,228.92
2019-01-29T19:33:23.627Z,208.38
2019-01-29T19:35:57.417Z,263.15
2019-01-29T19:38:32.485Z,277.68
2019-01-29T19:41:07.407Z,321.57
2019-01-29T19:43:40.896Z,304.45
2019-01-29T19:46:15.562Z,310.38
2019-01-29T19:48:49.082Z,238.70
2019-01-29T19:51:22.866Z,288.80
2019-01-29T19:54:05.743Z,381.17
2019-01-29T19:56:39.768Z,344.65
2019-01-29T19:59:26.412Z,299.37
2019-01-29T20:02:00.952Z,231.05
2019-01-29T20:04:35.052Z,131.85
2019-01-29T20:07:09.381Z,135.65
2019-01-29T20:09:46.378Z,99.07
2019-01-29T20:12:21.540Z,104.80
2019-01-29T20:14:55.256Z,169.87
2019-01-29T20:17:30.064Z,147.65
2019-01-29T20:20:03.883Z,130.87
2019-01-29T20:22:37.993Z,110.60
2019-01-29T20:25:12.073Z,132.03
2019-01-29T20:27:45.653Z,114.47
2019-01-29T20:30:27.476Z,99.17
2019-01-29T20:33:05.086Z,90.60
2019-01-29T20:35:38.358Z,88.07
2019-01-29T20:38:11.951Z,86.82
2019-01-29T20:40:45.379Z,52.17
2019-01-29T20:43:19.367Z,102.05
2019-01-29T20:45:53.318Z,77.37
2019-01-29T20:48:28.467Z,70.75
2019-01-29T20:51:02.334Z,65.65
2019-01-29T20:53:35.987Z,66.70
2019-01-29T20:56:21.947Z,64.65
2019-01-29T20:59:08.923Z,66.77
2019-01-29T21:01:55.145Z,103.58
2019-01-29T21:04:31.909Z,133.47
2019-01-29T21:07:05.860Z,169.17
2019-01-29T21:09:39.847Z,156.43
2019-01-29T21:12:14.443Z,171.57
2019-01-29T21:14:47.634Z,153.75
2019-01-29T21:19:54.450Z,161.88
2019-01-29T21:22:30.155Z,163.45
2019-01-29T21:25:05.975Z,174.87
2019-01-29T21:27:38.046Z,168.93
